Time;durP1;ratioP1;P1;durP2;ratioP2;P2;SDS_P1;SDS_P2;PMS_P1;PMS_P2;Temp;Humidity;BMP_temperature;BMP_pressure;BME280_temperature;BME280_humidity;BME280_pressure;Samples;Min_cycle;Max_cycle;Signal;HPM_P1;HPM_P2
2022/07/13 00:00:20;;;;;;;18.58;16.92;;;20.20;99.90;;;;;;5024965;28;20397;-52
2022/07/13 00:02:46;;;;;;;20.13;18.30;;;20.20;99.90;;;;;;5024989;28;20069;-54
2022/07/13 00:05:12;;;;;;;18.60;17.20;;;20.20;99.90;;;;;;5030542;28;20533;-51
2022/07/13 00:07:38;;;;;;;18.70;17.10;;;20.20;99.90;;;;;;5034733;28;20511;-55
2022/07/13 00:10:04;;;;;;;19.15;17.17;;;20.20;99.90;;;;;;5040811;28;20041;-55
2022/07/13 00:12:31;;;;;;;18.63;16.92;;;20.20;99.90;;;;;;5043771;28;20049;-51
2022/07/13 00:14:57;;;;;;;19.58;17.67;;;20.20;99.90;;;;;;5027839;28;20052;-51
2022/07/13 00:17:23;;;;;;;17.83;16.10;;;20.20;99.90;;;;;;5041626;28;20415;-53
2022/07/13 00:19:49;;;;;;;19.13;17.40;;;20.30;99.90;;;;;;5022773;28;20056;-50
2022/07/13 00:22:17;;;;;;;18.90;16.25;;;20.20;99.90;;;;;;5040798;28;20080;-54
2022/07/13 00:24:42;;;;;;;19.08;17.35;;;20.20;99.90;;;;;;5019613;28;20582;-54
2022/07/13 00:27:08;;;;;;;19.50;17.65;;;20.20;99.90;;;;;;5019437;28;20072;-53
2022/07/13 00:29:34;;;;;;;18.52;17.02;;;20.30;99.90;;;;;;5043040;28;20824;-53
2022/07/13 00:32:01;;;;;;;19.17;17.52;;;20.30;99.90;;;;;;5017935;28;20056;-50
2022/07/13 00:34:27;;;;;;;19.15;17.55;;;20.20;99.90;;;;;;5043039;28;20052;-53
2022/07/13 00:36:53;;;;;;;17.45;15.95;;;20.30;99.90;;;;;;5042091;28;20057;-54
2022/07/13 00:39:19;;;;;;;18.13;16.63;;;20.30;99.90;;;;;;5020583;28;20045;-51
2022/07/13 00:41:48;;;;;;;18.63;17.10;;;20.20;99.90;;;;;;5044046;28;20059;-51
2022/07/13 00:44:15;;;;;;;18.13;16.48;;;20.20;99.90;;;;;;5042892;28;20585;-56
2022/07/13 00:46:44;;;;;;;17.08;15.55;;;20.30;99.90;;;;;;5022389;28;20068;-49
2022/07/13 00:49:12;;;;;;;18.05;16.45;;;20.30;99.90;;;;;;5023989;28;20120;-53
2022/07/13 00:51:39;;;;;;;17.85;16.25;;;20.20;99.90;;;;;;5044231;28;20052;-55
2022/07/13 00:54:06;;;;;;;17.30;15.75;;;20.20;99.90;;;;;;5050304;28;20084;-56
2022/07/13 00:56:32;;;;;;;17.92;16.23;;;20.20;99.90;;;;;;4997558;28;20053;-48
2022/07/13 00:58:59;;;;;;;17.55;16.15;;;20.30;99.90;;;;;;5011516;28;20581;-52
2022/07/13 01:01:26;;;;;;;17.67;15.98;;;20.20;99.90;;;;;;5032229;28;20423;-54
2022/07/13 01:03:52;;;;;;;16.95;15.50;;;20.20;99.90;;;;;;5011321;28;20056;-49
2022/07/13 01:06:18;;;;;;;17.20;15.75;;;20.20;99.90;;;;;;5042663;28;20049;-52
2022/07/13 01:08:46;;;;;;;17.50;15.80;;;20.20;99.90;;;;;;5043820;28;20060;-55
2022/07/13 01:11:12;;;;;;;16.92;15.27;;;20.30;99.90;;;;;;5028837;28;23100;-53
2022/07/13 01:13:39;;;;;;;17.95;16.17;;;20.30;99.90;;;;;;5025497;28;20068;-50
2022/07/13 01:16:07;;;;;;;16.02;14.32;;;20.30;99.90;;;;;;5043419;28;20053;-51
2022/07/13 01:18:33;;;;;;;16.63;15.02;;;20.30;99.90;;;;;;5023120;28;20073;-51
2022/07/13 01:21:00;;;;;;;16.45;14.82;;;20.40;99.90;;;;;;5024106;28;20411;-51
2022/07/13 01:23:27;;;;;;;16.20;14.85;;;20.40;99.90;;;;;;5047228;28;20504;-52
2022/07/13 01:25:56;;;;;;;15.80;14.35;;;20.40;99.90;;;;;;5027911;28;20053;-52
2022/07/13 01:28:25;;;;;;;15.70;14.38;;;20.30;99.90;;;;;;5047744;28;20120;-52
2022/07/13 01:30:51;;;;;;;16.27;14.73;;;20.30;99.90;;;;;;5042748;28;20048;-53
2022/07/13 01:33:17;;;;;;;16.65;15.05;;;20.30;99.90;;;;;;5025059;28;20081;-51
2022/07/13 01:35:43;;;;;;;16.05;14.65;;;20.30;99.90;;;;;;5028472;28;20139;-52
2022/07/13 01:38:14;;;;;;;16.88;15.40;;;20.30;99.90;;;;;;5044838;28;20522;-52
2022/07/13 01:40:41;;;;;;;17.30;15.77;;;20.30;99.90;;;;;;5024557;28;20159;-52
2022/07/13 01:43:08;;;;;;;16.95;15.45;;;20.30;99.90;;;;;;5051824;28;20063;-49
2022/07/13 01:45:34;;;;;;;16.05;14.55;;;20.30;99.90;;;;;;5055549;28;20057;-53
2022/07/13 01:48:00;;;;;;;16.23;14.77;;;20.30;99.90;;;;;;5042760;28;20052;-53
2022/07/13 01:50:27;;;;;;;16.92;15.35;;;20.30;99.90;;;;;;5024555;28;20119;-54
2022/07/13 01:52:54;;;;;;;16.17;14.60;;;20.30;99.90;;;;;;5040447;28;20483;-50
2022/07/13 01:55:20;;;;;;;16.42;14.85;;;20.30;99.90;;;;;;5045394;28;20056;-52
2022/07/13 01:57:46;;;;;;;16.42;14.88;;;20.30;99.90;;;;;;5022359;28;20049;-49
2022/07/13 02:00:20;;;;;;;17.92;16.33;;;20.20;99.90;;;;;;5041367;28;20487;-50
2022/07/13 02:02:48;;;;;;;16.48;15.00;;;20.20;99.90;;;;;;5029682;28;20053;-52
2022/07/13 02:05:14;;;;;;;16.30;15.00;;;20.20;99.90;;;;;;5028463;28;20407;-51
2022/07/13 02:07:41;;;;;;;16.48;15.07;;;20.20;99.90;;;;;;5031884;28;20057;-49
2022/07/13 02:10:08;;;;;;;17.17;15.50;;;20.20;99.90;;;;;;5045646;28;20103;-52
2022/07/13 02:12:35;;;;;;;16.83;15.13;;;20.20;99.90;;;;;;5035983;28;20071;-53
2022/07/13 02:15:01;;;;;;;16.75;15.15;;;20.20;99.90;;;;;;5035182;28;20049;-50
2022/07/13 02:17:27;;;;;;;16.95;15.43;;;20.20;99.90;;;;;;5045330;28;20041;-51
2022/07/13 02:19:53;;;;;;;18.00;16.40;;;20.20;99.90;;;;;;5025128;28;20107;-54
2022/07/13 02:22:19;;;;;;;16.40;14.90;;;20.20;99.90;;;;;;5040197;28;21340;-51
2022/07/13 02:24:45;;;;;;;17.67;16.17;;;20.20;99.90;;;;;;5040660;28;20047;-52
2022/07/13 02:27:12;;;;;;;17.15;15.50;;;20.20;99.90;;;;;;5040456;28;20052;-51
2022/07/13 02:29:38;;;;;;;17.00;15.35;;;20.20;99.90;;;;;;5024270;28;20056;-51
2022/07/13 02:32:06;;;;;;;17.33;15.73;;;20.20;99.90;;;;;;5014640;28;20048;-49
2022/07/13 02:34:32;;;;;;;16.52;14.98;;;20.20;99.90;;;;;;5044332;28;20083;-54
2022/07/13 02:36:58;;;;;;;17.70;16.00;;;20.20;99.90;;;;;;5024046;28;20057;-50
2022/07/13 02:39:25;;;;;;;16.33;14.90;;;20.20;99.90;;;;;;5040795;28;20053;-52
2022/07/13 02:41:51;;;;;;;16.83;15.15;;;20.20;99.90;;;;;;5044927;28;20097;-54
2022/07/13 02:44:17;;;;;;;17.45;15.63;;;20.20;99.90;;;;;;5023752;28;20061;-52
2022/07/13 02:46:43;;;;;;;16.23;14.73;;;20.10;99.90;;;;;;5024717;28;20061;-51
2022/07/13 02:49:10;;;;;;;17.13;15.68;;;20.20;99.90;;;;;;5024324;28;20057;-52
2022/07/13 02:51:37;;;;;;;16.45;14.95;;;20.20;99.90;;;;;;5043007;28;20048;-50
2022/07/13 02:54:04;;;;;;;17.10;15.23;;;20.10;99.90;;;;;;5038537;28;20063;-50
2022/07/13 02:56:30;;;;;;;16.52;15.02;;;20.10;99.90;;;;;;5009143;28;20081;-51
2022/07/13 02:58:56;;;;;;;18.33;15.00;;;20.10;99.90;;;;;;5036256;28;20471;-52
2022/07/13 03:01:22;;;;;;;17.17;15.32;;;20.10;99.90;;;;;;5038232;28;20053;-50
2022/07/13 03:03:47;;;;;;;16.08;14.43;;;20.10;99.90;;;;;;5038553;28;20049;-54
2022/07/13 03:06:15;;;;;;;16.73;15.13;;;20.10;99.90;;;;;;5011745;28;20048;-53
2022/07/13 03:08:40;;;;;;;17.00;15.45;;;20.10;99.90;;;;;;5044273;28;20441;-57
2022/07/13 03:11:06;;;;;;;16.67;15.18;;;20.10;99.90;;;;;;5035128;28;20060;-55
2022/07/13 03:13:33;;;;;;;16.55;14.95;;;20.00;99.90;;;;;;5043811;28;20040;-50
2022/07/13 03:16:00;;;;;;;17.08;15.48;;;20.00;99.90;;;;;;5021562;28;20065;-50
2022/07/13 03:18:26;;;;;;;16.73;15.10;;;20.00;99.90;;;;;;5012596;28;20526;-52
2022/07/13 03:20:52;;;;;;;15.52;14.02;;;20.00;99.90;;;;;;5022989;28;20631;-50
2022/07/13 03:23:19;;;;;;;16.50;15.10;;;20.00;99.90;;;;;;5040499;28;20052;-53
2022/07/13 03:25:45;;;;;;;16.75;15.25;;;20.00;99.90;;;;;;5019561;28;20057;-50
2022/07/13 03:28:11;;;;;;;16.05;14.65;;;20.00;99.90;;;;;;5041681;28;20040;-50
2022/07/13 03:30:37;;;;;;;15.57;14.27;;;20.00;99.90;;;;;;5043549;28;20049;-53
2022/07/13 03:33:04;;;;;;;16.58;15.02;;;19.90;99.90;;;;;;5015347;28;20476;-45
2022/07/13 03:35:29;;;;;;;15.50;14.10;;;20.00;99.90;;;;;;5039143;28;20126;-52
2022/07/13 03:37:55;;;;;;;16.38;14.88;;;20.00;99.90;;;;;;5007529;28;20053;-52
2022/07/13 03:40:21;;;;;;;17.48;15.70;;;19.90;99.90;;;;;;5039195;28;20048;-53
2022/07/13 03:42:47;;;;;;;17.13;15.50;;;19.90;99.90;;;;;;5020935;28;20883;-52
2022/07/13 03:45:14;;;;;;;16.08;14.77;;;19.90;99.90;;;;;;5020804;28;20151;-52
2022/07/13 03:47:40;;;;;;;16.88;15.38;;;19.90;99.90;;;;;;5026373;28;20060;-53
2022/07/13 03:50:07;;;;;;;17.30;15.70;;;19.90;99.90;;;;;;5036326;28;20049;-53
2022/07/13 03:52:33;;;;;;;16.95;15.10;;;19.90;99.90;;;;;;5034340;28;20059;-53
2022/07/13 03:54:59;;;;;;;16.80;15.25;;;19.90;99.90;;;;;;5040197;28;20044;-51
2022/07/13 03:57:25;;;;;;;17.40;15.75;;;19.90;99.90;;;;;;5014465;28;20050;-44
2022/07/13 03:59:51;;;;;;;17.42;15.93;;;19.90;99.90;;;;;;5038730;28;20060;-49
2022/07/13 04:02:17;;;;;;;18.10;16.35;;;19.90;99.90;;;;;;5000790;28;20439;-50
2022/07/13 04:04:45;;;;;;;17.73;16.15;;;19.90;99.90;;;;;;5011818;28;20144;-51
2022/07/13 04:07:10;;;;;;;17.60;16.13;;;19.90;99.90;;;;;;5038753;28;20201;-54
2022/07/13 04:09:36;;;;;;;17.50;15.82;;;19.90;99.90;;;;;;5037718;28;20602;-48
2022/07/13 04:12:02;;;;;;;16.20;14.75;;;19.80;99.90;;;;;;5043823;28;20041;-50
2022/07/13 04:14:28;;;;;;;17.30;15.70;;;19.80;99.90;;;;;;5015807;28;20080;-50
2022/07/13 04:16:55;;;;;;;17.13;15.63;;;19.80;99.90;;;;;;5032560;28;20079;-53
2022/07/13 04:19:21;;;;;;;15.15;13.85;;;19.90;99.90;;;;;;5040208;28;20388;-52
2022/07/13 04:21:47;;;;;;;14.55;13.18;;;19.90;99.90;;;;;;5044038;28;20090;-52
2022/07/13 04:24:13;;;;;;;15.52;14.02;;;19.90;99.90;;;;;;5042683;28;20053;-52
2022/07/13 04:26:40;;;;;;;15.13;13.63;;;19.90;99.90;;;;;;5044712;28;20048;-50
2022/07/13 04:29:06;;;;;;;14.95;13.50;;;20.00;99.90;;;;;;5041668;28;20130;-51
2022/07/13 04:31:32;;;;;;;15.55;14.13;;;20.00;99.90;;;;;;5021705;28;20049;-55
2022/07/13 04:33:58;;;;;;;13.73;12.48;;;20.10;99.90;;;;;;5015126;28;20064;-53
2022/07/13 04:36:25;;;;;;;14.88;13.55;;;20.10;99.90;;;;;;5043778;28;20049;-54
2022/07/13 04:38:51;;;;;;;14.13;12.93;;;20.20;99.90;;;;;;5036713;28;22126;-52
2022/07/13 04:41:17;;;;;;;14.93;13.68;;;20.20;99.90;;;;;;5021093;28;20058;-49
2022/07/13 04:43:45;;;;;;;15.02;13.63;;;20.20;99.90;;;;;;5037724;28;20064;-54
2022/07/13 04:46:13;;;;;;;15.15;13.73;;;20.20;99.90;;;;;;5045008;28;20383;-52
2022/07/13 04:48:38;;;;;;;15.10;13.70;;;20.30;99.90;;;;;;5032160;28;20064;-55
2022/07/13 04:51:05;;;;;;;16.00;14.50;;;20.20;99.90;;;;;;5041368;28;20052;-51
2022/07/13 04:53:31;;;;;;;15.63;14.23;;;20.30;99.90;;;;;;5040665;28;20135;-53
2022/07/13 04:55:57;;;;;;;15.75;13.98;;;20.30;99.90;;;;;;5037379;28;20041;-50
2022/07/13 04:58:23;;;;;;;15.52;13.90;;;20.30;99.90;;;;;;5014391;28;20060;-51
2022/07/13 05:00:50;;;;;;;14.80;13.50;;;20.30;99.90;;;;;;5045699;28;20144;-51
2022/07/13 05:03:16;;;;;;;15.35;14.05;;;20.30;99.90;;;;;;5046765;28;20999;-51
2022/07/13 05:05:42;;;;;;;15.60;14.10;;;20.30;99.90;;;;;;5021482;28;20045;-55
2022/07/13 05:08:08;;;;;;;14.85;13.30;;;20.40;99.90;;;;;;5046956;28;20663;-53
2022/07/13 05:10:35;;;;;;;13.82;12.43;;;20.40;99.90;;;;;;5010480;28;20570;-54
2022/07/13 05:13:01;;;;;;;15.57;14.13;;;20.40;99.90;;;;;;5046006;28;20060;-52
2022/07/13 05:15:30;;;;;;;15.05;13.43;;;20.50;99.90;;;;;;5030010;28;20055;-49
2022/07/13 05:17:56;;;;;;;15.45;13.95;;;20.50;99.90;;;;;;5029394;28;20057;-52
2022/07/13 05:20:22;;;;;;;15.55;14.07;;;20.60;99.90;;;;;;5029873;28;20049;-51
2022/07/13 05:22:48;;;;;;;15.43;14.05;;;20.60;99.90;;;;;;5036079;28;20045;-51
2022/07/13 05:25:14;;;;;;;15.55;13.95;;;20.70;99.90;;;;;;5047033;28;20056;-52
2022/07/13 05:27:41;;;;;;;16.25;14.75;;;20.70;99.90;;;;;;5033332;28;20101;-54
2022/07/13 05:30:07;;;;;;;17.00;14.88;;;20.80;99.90;;;;;;5001494;28;20057;-52
2022/07/13 05:32:33;;;;;;;16.05;14.40;;;20.80;99.90;;;;;;4983724;28;20049;-51
2022/07/13 05:35:00;;;;;;;15.93;14.30;;;20.90;99.90;;;;;;5012958;28;20041;-47
2022/07/13 05:37:26;;;;;;;15.23;13.82;;;21.00;99.90;;;;;;5006504;28;20080;-52
2022/07/13 05:39:52;;;;;;;15.93;14.32;;;21.10;99.90;;;;;;5025349;28;20053;-50
2022/07/13 05:42:18;;;;;;;15.68;14.25;;;21.20;99.90;;;;;;5021847;28;20131;-49
2022/07/13 05:44:45;;;;;;;15.63;13.55;;;21.40;99.90;;;;;;5022643;28;20049;-53
2022/07/13 05:47:12;;;;;;;15.23;13.68;;;21.70;99.90;;;;;;5023715;28;20049;-51
2022/07/13 05:49:39;;;;;;;15.10;13.63;;;22.00;99.90;;;;;;5015921;28;20046;-53
2022/07/13 05:52:05;;;;;;;14.95;13.20;;;22.30;99.90;;;;;;5014665;28;20064;-55
2022/07/13 05:54:32;;;;;;;14.68;13.27;;;22.50;99.90;;;;;;4999299;28;20054;-50
2022/07/13 05:56:58;;;;;;;13.40;12.10;;;22.90;99.90;;;;;;5019701;28;20041;-52
2022/07/13 05:59:24;;;;;;;14.23;12.82;;;23.00;99.90;;;;;;5010095;28;20536;-52
2022/07/13 06:01:50;;;;;;;13.90;12.60;;;23.10;99.90;;;;;;5023454;28;20046;-54
2022/07/13 06:04:22;;;;;;;13.68;12.20;;;23.20;99.90;;;;;;4979085;28;20420;-51
2022/07/13 06:06:48;;;;;;;14.32;12.82;;;23.40;99.90;;;;;;5009120;28;20573;-52
2022/07/13 06:09:14;;;;;;;13.48;12.15;;;23.40;99.90;;;;;;5014407;28;20056;-55
2022/07/13 06:11:40;;;;;;;12.73;11.52;;;23.50;99.90;;;;;;4999696;28;20062;-53
2022/07/13 06:14:06;;;;;;;13.48;12.25;;;23.60;99.90;;;;;;5016755;28;20045;-52
2022/07/13 06:16:33;;;;;;;12.77;11.60;;;23.80;99.90;;;;;;4991672;28;20061;-52
2022/07/13 06:18:59;;;;;;;12.90;11.35;;;23.90;99.90;;;;;;5011362;28;20049;-53
2022/07/13 06:21:25;;;;;;;13.32;12.07;;;23.90;99.90;;;;;;5015906;28;20049;-53
2022/07/13 06:23:51;;;;;;;12.32;10.75;;;23.90;99.90;;;;;;4996904;28;20408;-54
2022/07/13 06:26:18;;;;;;;12.20;11.02;;;23.90;99.90;;;;;;5020092;28;20056;-51
2022/07/13 06:28:47;;;;;;;12.32;10.93;;;23.90;99.90;;;;;;5005668;28;20728;-53
2022/07/13 06:31:13;;;;;;;15.43;11.10;;;23.70;99.90;;;;;;5018357;28;20060;-52
2022/07/13 06:33:41;;;;;;;13.20;11.57;;;23.70;99.90;;;;;;5015411;28;20057;-53
2022/07/13 06:36:08;;;;;;;11.55;10.55;;;23.60;99.90;;;;;;5013967;28;20057;-53
2022/07/13 06:39:05;;;;;;;12.30;10.98;;;23.60;99.90;;;;;;5005808;28;20116;-52
2022/07/13 06:41:31;;;;;;;12.48;11.35;;;23.80;99.90;;;;;;5025714;28;20045;-52
2022/07/13 06:43:57;;;;;;;12.23;11.02;;;24.30;99.90;;;;;;5009966;28;20056;-55
2022/07/13 06:46:23;;;;;;;12.40;10.75;;;25.00;99.90;;;;;;4990028;28;20054;-51
2022/07/13 06:48:49;;;;;;;12.63;10.85;;;25.90;99.90;;;;;;5021995;28;20557;-54
2022/07/13 06:51:15;;;;;;;11.30;10.10;;;26.50;99.90;;;;;;5007388;28;20057;-51
2022/07/13 06:53:42;;;;;;;11.15;10.15;;;26.70;99.90;;;;;;5025631;28;20056;-53
2022/07/13 06:56:08;;;;;;;12.38;10.18;;;27.20;99.90;;;;;;5023006;28;20104;-53
2022/07/13 06:58:39;;;;;;;11.73;10.50;;;28.10;99.90;;;;;;5010117;28;20049;-56
2022/07/13 07:01:06;;;;;;;11.25;10.00;;;29.00;99.90;;;;;;4995715;28;20062;-54
2022/07/13 07:03:32;;;;;;;10.70;9.65;;;28.90;99.90;;;;;;4984967;28;20053;-52
2022/07/13 07:05:58;;;;;;;10.60;9.57;;;28.80;99.90;;;;;;5021539;28;20099;-52
2022/07/13 07:08:24;;;;;;;11.98;9.77;;;29.00;99.90;;;;;;5019685;28;20056;-57
2022/07/13 07:10:50;;;;;;;12.23;10.27;;;29.90;99.90;;;;;;5025419;28;20060;-54
2022/07/13 07:13:17;;;;;;;9.48;8.57;;;30.50;99.90;;;;;;5022608;28;20152;-52
2022/07/13 07:15:44;;;;;;;10.55;8.38;;;30.30;99.90;;;;;;4999036;28;20057;-54
2022/07/13 07:18:12;;;;;;;10.35;9.23;;;30.30;99.90;;;;;;4995104;28;20076;-53
2022/07/13 07:20:39;;;;;;;10.73;9.63;;;30.20;99.90;;;;;;5021739;28;20049;-52
2022/07/13 07:23:06;;;;;;;12.57;9.82;;;30.50;99.90;;;;;;5002585;28;20054;-52
2022/07/13 07:25:33;;;;;;;10.45;9.45;;;30.80;99.90;;;;;;5022969;28;20162;-55
2022/07/13 07:27:59;;;;;;;11.98;9.90;;;30.50;99.90;;;;;;5024109;28;20255;-47
2022/07/13 07:30:25;;;;;;;11.88;9.82;;;30.50;99.90;;;;;;5022540;28;20060;-53
2022/07/13 07:32:51;;;;;;;11.88;10.75;;;30.70;99.90;;;;;;5000901;28;20053;-54
2022/07/13 07:35:18;;;;;;;10.88;9.88;;;30.70;99.90;;;;;;5022892;28;20565;-55
2022/07/13 07:37:44;;;;;;;11.27;9.68;;;30.40;99.90;;;;;;5019801;28;20072;-52
2022/07/13 07:40:11;;;;;;;10.05;8.70;;;30.40;99.90;;;;;;5020607;28;20054;-52
2022/07/13 07:42:38;;;;;;;10.98;9.88;;;30.40;99.90;;;;;;5022134;28;20060;-54
2022/07/13 07:45:06;;;;;;;8.88;8.00;;;30.50;99.90;;;;;;5023307;28;20050;-56
2022/07/13 07:47:32;;;;;;;10.18;8.18;;;30.50;99.70;;;;;;5024262;28;20045;-53
2022/07/13 07:49:58;;;;;;;9.52;8.63;;;30.50;99.40;;;;;;4998593;28;20065;-52
2022/07/13 07:52:24;;;;;;;10.90;9.73;;;30.50;99.70;;;;;;5020583;28;20451;-51
2022/07/13 07:54:50;;;;;;;10.55;9.38;;;30.30;99.50;;;;;;5023137;28;20046;-54
2022/07/13 07:57:16;;;;;;;8.95;8.13;;;30.20;99.40;;;;;;4995623;28;20056;-56
2022/07/13 07:59:52;;;;;;;12.65;8.88;;;30.10;99.10;;;;;;5015973;28;20045;-54
2022/07/13 08:02:18;;;;;;;9.90;8.90;;;30.10;99.10;;;;;;5010071;28;20136;-55
2022/07/13 08:04:45;;;;;;;9.85;7.68;;;30.10;99.70;;;;;;5012019;28;20046;-55
2022/07/13 08:07:11;;;;;;;7.38;6.65;;;30.10;99.70;;;;;;5011343;28;20077;-53
2022/07/13 08:09:37;;;;;;;5.53;5.03;;;30.00;99.10;;;;;;5015832;28;20045;-53
2022/07/13 08:12:04;;;;;;;7.50;6.00;;;29.90;99.10;;;;;;5009843;28;20386;-52
2022/07/13 08:14:31;;;;;;;6.40;5.80;;;29.90;98.50;;;;;;5011452;28;20050;-54
2022/07/13 08:16:57;;;;;;;9.88;5.50;;;30.00;98.50;;;;;;4997250;28;20565;-53
2022/07/13 08:19:24;;;;;;;7.00;5.20;;;30.00;97.90;;;;;;4991020;28;20144;-51
2022/07/13 08:21:50;;;;;;;6.45;4.28;;;29.90;98.00;;;;;;4999703;28;20076;-51
2022/07/13 08:24:16;;;;;;;6.20;4.28;;;29.80;97.80;;;;;;5015224;28;20444;-54
2022/07/13 08:26:42;;;;;;;6.53;4.50;;;29.80;97.80;;;;;;5024864;28;20050;-46
2022/07/13 08:29:08;;;;;;;7.13;4.22;;;29.90;97.70;;;;;;5012117;28;20053;-51
2022/07/13 08:31:34;;;;;;;6.25;4.88;;;29.90;97.60;;;;;;5021475;28;20500;-52
2022/07/13 08:39:31;;;;;;;5.10;4.18;;;29.80;97.80;;;;;;4994147;28;20089;-53
2022/07/13 08:42:00;;;;;;;8.43;3.70;;;29.90;97.80;;;;;;5004910;28;20048;-51
2022/07/13 08:44:27;;;;;;;6.50;3.92;;;30.00;96.50;;;;;;4992913;28;20382;-52
2022/07/13 08:46:54;;;;;;;6.32;4.30;;;29.90;96.00;;;;;;5022722;28;20054;-54
2022/07/13 08:49:22;;;;;;;7.25;4.00;;;29.80;96.00;;;;;;5032341;28;20491;-55
2022/07/13 08:51:50;;;;;;;7.18;4.47;;;29.70;96.40;;;;;;5006718;28;20093;-53
2022/07/13 08:54:19;;;;;;;5.57;4.25;;;29.60;96.80;;;;;;5015156;28;20050;-51
2022/07/13 08:56:45;;;;;;;9.50;4.82;;;29.60;95.90;;;;;;4991718;28;20456;-53
2022/07/13 08:59:12;;;;;;;8.43;5.45;;;29.60;96.00;;;;;;5014738;28;20085;-54
2022/07/13 09:01:39;;;;;;;6.07;4.90;;;29.60;96.60;;;;;;4991444;28;20132;-55
2022/07/13 09:04:12;;;;;;;8.25;6.00;;;29.60;96.60;;;;;;4996409;28;20054;-54
2022/07/13 09:06:48;;;;;;;8.25;6.05;;;29.60;96.80;;;;;;5010122;28;20076;-54
2022/07/13 09:09:28;;;;;;;6.90;4.30;;;29.60;97.40;;;;;;4997002;28;20148;-48
2022/07/13 09:12:08;;;;;;;5.47;4.47;;;29.70;96.20;;;;;;5005184;28;20500;-53
2022/07/13 09:14:35;;;;;;;7.07;4.25;;;29.60;95.90;;;;;;5015217;28;20551;-53
2022/07/13 09:17:01;;;;;;;6.65;4.85;;;29.60;95.60;;;;;;5014127;28;20133;-54
2022/07/13 09:19:35;;;;;;;8.70;5.05;;;29.50;95.90;;;;;;5013013;28;20516;-53
2022/07/13 09:22:28;;;;;;;8.00;4.95;;;29.40;96.50;;;;;;4996831;28;20133;-53
2022/07/13 09:24:55;;;;;;;4.65;4.20;;;29.60;96.00;;;;;;5011657;28;20065;-54
2022/07/13 09:27:23;;;;;;;5.47;4.95;;;29.60;96.50;;;;;;5015236;28;20073;-53
2022/07/13 09:29:49;;;;;;;6.60;5.13;;;29.50;95.80;;;;;;4995595;28;20498;-53
2022/07/13 09:32:15;;;;;;;6.72;4.93;;;29.50;95.70;;;;;;4997560;28;20054;-53
2022/07/13 09:34:51;;;;;;;8.88;4.60;;;29.40;96.10;;;;;;5017517;28;20046;-55
2022/07/13 09:37:19;;;;;;;6.07;3.88;;;29.60;95.60;;;;;;5013636;28;20128;-52
2022/07/13 09:40:10;;;;;;;7.40;3.90;;;29.60;96.10;;;;;;4998136;28;20060;-55
2022/07/13 09:42:40;;;;;;;6.05;3.47;;;29.70;95.90;;;;;;5007452;28;20460;-52
2022/07/13 09:47:59;;;;;;;4.38;3.72;;;29.70;96.40;;;;;;5002260;28;20076;-53
2022/07/13 09:50:51;;;;;;;4.90;3.88;;;29.80;95.50;;;;;;5001265;28;20061;-53
2022/07/13 09:53:37;;;;;;;6.68;2.95;;;29.90;95.60;;;;;;5001091;28;20057;-50
2022/07/13 09:56:05;;;;;;;4.88;2.92;;;29.80;94.40;;;;;;5006052;28;20045;-52
2022/07/13 09:58:33;;;;;;;4.95;3.25;;;29.70;94.50;;;;;;5013001;28;20487;-53
2022/07/13 10:01:04;;;;;;;4.65;2.90;;;29.90;94.70;;;;;;5014754;28;20041;-54
2022/07/13 10:03:31;;;;;;;3.88;3.00;;;29.90;94.80;;;;;;5017564;28;20051;-53
2022/07/13 10:06:00;;;;;;;4.78;3.00;;;29.90;94.40;;;;;;5017669;28;20091;-50
2022/07/13 10:08:27;;;;;;;6.75;3.00;;;29.90;94.70;;;;;;5019263;28;20531;-50
2022/07/13 10:10:53;;;;;;;5.63;3.22;;;30.00;94.50;;;;;;5025423;28;20060;-52
2022/07/13 10:13:20;;;;;;;6.07;3.00;;;30.00;94.20;;;;;;5025515;28;20057;-56
2022/07/13 10:15:51;;;;;;;4.68;2.92;;;30.00;94.70;;;;;;5007522;28;20062;-53
2022/07/13 10:18:30;;;;;;;9.23;3.50;;;29.80;94.30;;;;;;5025940;28;20049;-53
2022/07/13 10:21:18;;;;;;;5.15;3.10;;;29.70;94.00;;;;;;5020166;28;20132;-52
2022/07/13 10:23:45;;;;;;;6.28;3.75;;;29.60;94.10;;;;;;5007327;28;20511;-56
2022/07/13 10:26:25;;;;;;;4.40;3.40;;;29.70;94.80;;;;;;4983302;28;20049;-55
2022/07/13 10:29:10;;;;;;;6.22;3.50;;;29.80;94.90;;;;;;5025575;28;20057;-48
2022/07/13 10:31:38;;;;;;;4.35;3.58;;;29.80;94.60;;;;;;5025120;28;20041;-52
2022/07/13 10:34:06;;;;;;;5.57;4.07;;;29.90;94.80;;;;;;5019698;28;20092;-50
2022/07/13 10:36:56;;;;;;;6.78;4.07;;;29.70;94.20;;;;;;4995989;28;20060;-54
2022/07/13 10:39:27;;;;;;;4.95;3.95;;;29.80;94.60;;;;;;4996350;28;20061;-52
2022/07/13 10:42:01;;;;;;;6.38;4.45;;;29.70;94.50;;;;;;4979282;28;20053;-49
2022/07/13 10:44:43;;;;;;;7.20;4.72;;;29.80;95.10;;;;;;5017442;28;20049;-55
2022/07/13 10:47:11;;;;;;;4.97;3.78;;;29.90;95.70;;;;;;5013718;28;20592;-55
2022/07/13 10:49:47;;;;;;;7.72;4.65;;;29.80;95.90;;;;;;5003300;28;20046;-51
2022/07/13 10:52:43;;;;;;;6.28;4.72;;;29.70;96.00;;;;;;5011654;28;20087;-51
2022/07/13 10:55:13;;;;;;;8.43;4.85;;;29.80;95.40;;;;;;4922239;29;20468;-55
2022/07/13 10:57:45;;;;;;;7.40;4.97;;;29.80;95.40;;;;;;4906843;29;20056;-54
2022/07/13 11:00:22;;;;;;;9.98;5.72;;;29.60;95.70;;;;;;4883533;29;20455;-51
2022/07/13 11:03:02;;;;;;;4.93;4.35;;;29.50;96.10;;;;;;4910266;29;20063;-53
2022/07/13 11:05:33;;;;;;;8.10;4.28;;;29.30;94.50;;;;;;4902385;29;20142;-52
2022/07/13 11:08:12;;;;;;;6.43;4.05;;;29.00;95.90;;;;;;4902833;29;20162;-55
2022/07/13 11:10:38;;;;;;;7.03;4.40;;;29.00;94.60;;;;;;4915995;29;20064;-52
2022/07/13 11:13:09;;;;;;;10.02;5.10;;;29.10;95.70;;;;;;4923730;29;20068;-52
2022/07/13 11:15:57;;;;;;;6.47;4.82;;;29.10;95.30;;;;;;4924661;29;20059;-54
2022/07/13 11:18:27;;;;;;;5.75;3.60;;;29.10;95.50;;;;;;4896663;29;20096;-54
2022/07/13 11:20:59;;;;;;;3.63;3.10;;;29.00;95.20;;;;;;4898831;29;20063;-54
2022/07/13 11:26:36;;;;;;;5.78;3.67;;;29.40;95.60;;;;;;4906419;29;20056;-49
2022/07/13 11:29:09;;;;;;;4.38;3.08;;;29.20;95.20;;;;;;4893977;29;20515;-51
2022/07/13 11:31:36;;;;;;;3.75;2.90;;;29.30;94.70;;;;;;4924641;28;20531;-55
2022/07/13 11:34:02;;;;;;;5.47;3.20;;;29.40;94.90;;;;;;4993906;28;20529;-52
2022/07/13 11:36:29;;;;;;;3.80;2.88;;;29.40;94.60;;;;;;4990292;28;20137;-53
2022/07/13 11:38:55;;;;;;;6.38;3.10;;;29.40;94.50;;;;;;4995193;28;20054;-54
2022/07/13 11:41:23;;;;;;;5.93;3.00;;;29.60;94.80;;;;;;4998065;28;20056;-50
2022/07/13 11:43:51;;;;;;;5.03;3.42;;;29.60;94.50;;;;;;4992193;28;20126;-54
2022/07/13 11:46:28;;;;;;;6.18;3.03;;;29.60;94.20;;;;;;4976722;28;20050;-53
2022/07/13 11:49:05;;;;;;;3.72;2.40;;;29.60;94.60;;;;;;4993329;28;20056;-55
2022/07/13 11:51:33;;;;;;;3.60;2.80;;;29.40;94.90;;;;;;4994131;28;20042;-55
2022/07/13 11:54:14;;;;;;;6.57;4.15;;;29.30;95.90;;;;;;4990741;28;20050;-51
2022/07/13 11:56:56;;;;;;;5.50;2.93;;;29.40;95.30;;;;;;4985623;28;20145;-54
2022/07/13 11:59:39;;;;;;;5.00;3.47;;;29.30;95.90;;;;;;4990487;28;20313;-54
2022/07/13 12:02:08;;;;;;;5.65;3.15;;;29.10;95.20;;;;;;4989723;28;20057;-50
2022/07/13 12:04:38;;;;;;;4.40;3.30;;;28.80;95.60;;;;;;4967057;28;20146;-53
2022/07/13 12:07:23;;;;;;;4.93;2.83;;;28.70;95.20;;;;;;4987422;28;20053;-55
2022/07/13 12:09:51;;;;;;;6.43;3.42;;;28.80;96.50;;;;;;4987341;28;20122;-53
2022/07/13 12:12:19;;;;;;;5.55;3.60;;;28.80;95.80;;;;;;4993042;28;20046;-49
2022/07/13 12:14:45;;;;;;;8.68;3.45;;;28.30;95.90;;;;;;4989016;28;20524;-54
2022/07/13 12:17:12;;;;;;;4.72;3.33;;;28.00;96.50;;;;;;4994387;28;20101;-49
2022/07/13 12:19:38;;;;;;;6.78;3.53;;;27.80;96.50;;;;;;4991165;28;20058;-54
2022/07/13 12:22:07;;;;;;;5.63;3.05;;;27.60;96.90;;;;;;4991643;28;20072;-49
2022/07/13 12:24:34;;;;;;;5.38;3.17;;;27.50;97.20;;;;;;4972286;28;20416;-55
2022/07/13 12:27:01;;;;;;;6.40;2.83;;;27.60;97.30;;;;;;4993777;28;20081;-52
2022/07/13 12:29:30;;;;;;;4.03;2.80;;;27.50;97.20;;;;;;5008334;28;20049;-53
2022/07/13 12:32:02;;;;;;;4.57;3.08;;;27.60;97.70;;;;;;5016168;28;20049;-48
2022/07/13 12:34:28;;;;;;;4.22;3.13;;;27.50;97.50;;;;;;5007072;28;20180;-54
2022/07/13 12:36:55;;;;;;;5.53;3.90;;;27.70;97.70;;;;;;5006684;28;20053;-53
2022/07/13 12:39:35;;;;;;;7.15;3.30;;;27.50;97.50;;;;;;5009061;28;20128;-53
2022/07/13 12:42:02;;;;;;;4.85;3.75;;;27.30;96.80;;;;;;5010433;28;20057;-55
2022/07/13 12:44:33;;;;;;;6.05;4.10;;;27.10;97.40;;;;;;5011091;28;20037;-53
2022/07/13 12:47:04;;;;;;;5.40;3.70;;;26.90;97.70;;;;;;5011418;28;20076;-54
2022/07/13 12:49:43;;;;;;;5.97;3.70;;;26.80;98.70;;;;;;5012162;28;20868;-53
2022/07/13 12:52:11;;;;;;;5.45;4.13;;;26.90;99.00;;;;;;5015236;28;20049;-51